Terminal Aerodrome Forecast
Issued by NWS

Home | Current Version | Previous Version | Text Only | Print | Product List | Glossary On
Versions: 1 2 3 4 5 6 7 8 9 10 11 12 13 14 15 16 17 18 19 20 21 22 23 24 25 26 27 28
000
FTUS45 KSLC 250443 AAA
TAF36U
TAF AMD
K36U 250443Z 2505/2524 24012KT P6SM VCTS SCT070CB BKN100
     FM250700 18008KT P6SM -SHRA SCT050 BKN080
     FM251600 25007KT P6SM -SHRA SCT060 BKN080=

USA.gov is the U.S. government's official web portal to all federal, state and local government web resources and services.